createdAt,value
2018-04-11T00:00:25.440Z,59.70
2018-04-11T00:02:52.451Z,59.70
2018-04-11T00:05:20.388Z,60.10
2018-04-11T00:07:47.653Z,60.10
2018-04-11T00:10:14.732Z,60.10
2018-04-11T00:12:42.501Z,59.90
2018-04-11T00:15:09.513Z,59.90
2018-04-11T00:17:36.512Z,60.00
2018-04-11T00:20:03.524Z,59.90
2018-04-11T00:22:30.847Z,60.20
2018-04-11T00:24:57.944Z,60.30
2018-04-11T00:27:25.717Z,60.30
2018-04-11T00:29:52.755Z,60.30
2018-04-11T00:32:20.025Z,60.40
2018-04-11T00:34:47.151Z,60.50
2018-04-11T00:37:14.174Z,61.00
2018-04-11T00:39:41.192Z,60.80
2018-04-11T00:42:08.224Z,60.90
2018-04-11T00:44:35.382Z,61.30
2018-04-11T00:47:02.497Z,61.30
2018-04-11T00:49:29.528Z,61.40
2018-04-11T00:51:57.310Z,61.30
2018-04-11T00:54:25.051Z,61.30
2018-04-11T00:56:52.074Z,61.20
2018-04-11T00:59:19.109Z,60.60
2018-04-11T01:01:46.144Z,60.70
2018-04-11T01:04:13.182Z,60.90
2018-04-11T01:06:40.208Z,59.80
2018-04-11T01:09:07.952Z,59.70
2018-04-11T01:11:35.161Z,59.70
2018-04-11T01:14:02.264Z,59.80
2018-04-11T01:16:30.127Z,60.40
2018-04-11T01:18:57.884Z,60.30
2018-04-11T01:21:25.638Z,60.00
2018-04-11T01:23:52.668Z,59.90
2018-04-11T01:26:19.724Z,60.20
2018-04-11T01:28:46.740Z,60.50
2018-04-11T01:31:13.747Z,59.90
2018-04-11T01:33:41.512Z,60.00
2018-04-11T01:36:09.248Z,59.90
2018-04-11T01:38:37.030Z,60.00
2018-04-11T01:41:04.798Z,60.60
2018-04-11T01:43:32.009Z,60.50
2018-04-11T01:45:59.084Z,61.00
2018-04-11T01:48:26.851Z,61.60
2018-04-11T01:50:54.630Z,62.00
2018-04-11T01:53:21.656Z,61.90
2018-04-11T01:55:49.413Z,61.20
2018-04-11T01:58:16.545Z,61.20
2018-04-11T02:00:44.369Z,62.20
2018-04-11T02:03:11.441Z,62.10
2018-04-11T02:05:38.549Z,62.00
2018-04-11T02:08:05.573Z,62.20
2018-04-11T02:10:33.412Z,62.70
2018-04-11T02:13:00.580Z,62.70
2018-04-11T02:15:27.758Z,62.80
2018-04-11T02:17:55.549Z,63.50
2018-04-11T02:20:23.328Z,63.60
2018-04-11T02:22:50.336Z,63.50
2018-04-11T02:25:18.099Z,63.40
2018-04-11T02:27:45.880Z,63.80
2018-04-11T02:30:13.623Z,64.10
2018-04-11T02:32:41.396Z,64.20
2018-04-11T02:35:09.156Z,64.40
2018-04-11T02:37:36.931Z,65.00
2018-04-11T02:40:04.000Z,65.00
2018-04-11T02:42:31.013Z,64.90
2018-04-11T02:44:58.767Z,64.60
2018-04-11T02:47:26.543Z,64.60
2018-04-11T02:49:53.581Z,64.70
2018-04-11T02:52:21.350Z,66.30
2018-04-11T02:54:49.099Z,66.50
2018-04-11T02:57:16.137Z,67.30
2018-04-11T02:59:43.156Z,66.80
2018-04-11T03:02:10.173Z,66.80
2018-04-11T03:04:37.211Z,66.60
2018-04-11T03:07:04.296Z,66.60
2018-04-11T03:09:31.309Z,66.90
2018-04-11T03:11:58.341Z,66.90
2018-04-11T03:14:26.344Z,67.10
2018-04-11T03:16:53.795Z,67.10
2018-04-11T03:19:21.002Z,67.10
2018-04-11T03:21:48.150Z,67.10
2018-04-11T03:24:15.349Z,67.50
2018-04-11T03:26:42.544Z,67.60
2018-04-11T03:29:09.571Z,67.50
2018-04-11T03:31:36.641Z,67.60
2018-04-11T03:34:04.137Z,67.90
2018-04-11T03:36:31.455Z,67.90
2018-04-11T03:38:58.620Z,68.00
2018-04-11T03:41:25.700Z,67.90
2018-04-11T03:43:52.718Z,68.00
2018-04-11T03:46:19.803Z,68.40
2018-04-11T03:48:47.532Z,68.70
2018-04-11T03:51:15.323Z,68.50
2018-04-11T03:53:42.376Z,68.50
2018-04-11T03:56:09.398Z,68.90
2018-04-11T03:58:37.176Z,69.20
2018-04-11T04:01:04.961Z,69.00
2018-04-11T04:03:32.088Z,69.00
2018-04-11T04:05:59.135Z,69.00
2018-04-11T04:08:26.160Z,69.50
2018-04-11T04:10:53.925Z,69.80
2018-04-11T04:13:39.541Z,69.70
2018-04-11T04:16:25.088Z,69.90
2018-04-11T04:19:11.567Z,70.40
2018-04-11T04:21:38.628Z,70.40
2018-04-11T04:24:06.686Z,69.90
2018-04-11T04:26:33.761Z,69.80
2018-04-11T04:29:01.874Z,70.00
2018-04-11T04:31:29.030Z,70.00
2018-04-11T04:33:56.216Z,70.00
2018-04-11T04:36:23.333Z,69.50
2018-04-11T04:38:50.628Z,69.90
2018-04-11T04:41:18.562Z,69.90
2018-04-11T04:43:45.605Z,69.90
2018-04-11T04:46:12.615Z,70.30
2018-04-11T04:48:39.669Z,70.30
2018-04-11T04:51:06.724Z,70.50
2018-04-11T04:53:33.737Z,70.60
2018-04-11T04:56:00.730Z,70.80
2018-04-11T04:58:27.757Z,71.00
2018-04-11T05:00:55.487Z,71.70
2018-04-11T05:03:22.737Z,70.90
2018-04-11T05:05:49.756Z,71.00
2018-04-11T05:08:17.539Z,70.90
2018-04-11T05:10:45.347Z,71.20
2018-04-11T05:13:12.369Z,71.20
2018-04-11T05:15:39.459Z,71.20
2018-04-11T05:18:06.561Z,71.30
2018-04-11T05:20:33.629Z,72.20
2018-04-11T05:23:01.393Z,71.60
2018-04-11T05:25:28.433Z,70.80
2018-04-11T05:27:55.441Z,70.60
2018-04-11T05:30:22.602Z,71.10
2018-04-11T05:32:49.665Z,70.50
2018-04-11T05:35:17.468Z,70.00
2018-04-11T05:37:44.515Z,69.60
2018-04-11T05:40:11.634Z,69.10
2018-04-11T05:42:38.676Z,68.60
2018-04-11T05:45:05.689Z,69.10
2018-04-11T05:47:32.708Z,69.50
2018-04-11T05:49:59.747Z,69.10
2018-04-11T05:52:27.529Z,68.90
2018-04-11T05:54:54.543Z,68.90
2018-04-11T05:57:21.621Z,68.30
2018-04-11T05:59:48.620Z,68.70
2018-04-11T06:02:15.670Z,67.90
2018-04-11T06:04:42.661Z,68.00
2018-04-11T06:07:09.675Z,67.80
2018-04-11T06:09:37.445Z,67.00
2018-04-11T06:12:05.210Z,66.80
2018-04-11T06:14:32.981Z,66.40
2018-04-11T06:17:00.777Z,66.20
2018-04-11T06:19:27.823Z,66.20
2018-04-11T06:21:54.868Z,66.30
2018-04-11T06:24:21.882Z,65.40
2018-04-11T06:26:49.660Z,63.60
2018-04-11T06:29:17.444Z,63.50
2018-04-11T06:31:44.491Z,63.50
2018-04-11T06:34:11.556Z,63.00
2018-04-11T06:36:38.588Z,63.50
2018-04-11T06:39:05.627Z,63.80
2018-04-11T06:41:32.678Z,65.30
2018-04-11T06:43:59.677Z,64.20
2018-04-11T06:46:26.720Z,63.30
2018-04-11T06:48:53.747Z,64.10
2018-04-11T06:51:20.797Z,62.70
2018-04-11T06:53:47.813Z,62.10
2018-04-11T06:56:14.815Z,61.50
2018-04-11T06:58:41.847Z,61.50
2018-04-11T07:01:08.860Z,61.30
2018-04-11T07:03:35.903Z,61.20
2018-04-11T07:06:02.926Z,60.90
2018-04-11T07:08:29.948Z,60.80
2018-04-11T07:10:56.983Z,60.40
2018-04-11T07:13:24.019Z,60.50
2018-04-11T07:15:51.053Z,59.90
2018-04-11T07:18:18.821Z,59.90
2018-04-11T07:20:45.904Z,59.80
2018-04-11T07:23:12.905Z,59.60
2018-04-11T07:25:40.000Z,59.60
2018-04-11T07:28:07.045Z,59.70
2018-04-11T07:30:34.060Z,59.10
2018-04-11T07:33:01.115Z,58.60
2018-04-11T07:35:28.158Z,58.90
2018-04-11T07:37:55.277Z,58.70
2018-04-11T07:40:22.343Z,58.90
2018-04-11T07:42:50.119Z,58.70
2018-04-11T07:45:17.160Z,58.70
2018-04-11T07:47:44.225Z,58.60
2018-04-11T07:50:11.973Z,58.50
2018-04-11T07:52:39.040Z,58.50
2018-04-11T07:55:06.063Z,58.60
2018-04-11T07:57:33.072Z,59.30
2018-04-11T08:00:00.104Z,58.20
2018-04-11T08:02:27.181Z,58.60
2018-04-11T08:04:54.228Z,58.40
2018-04-11T08:07:21.273Z,58.10
2018-04-11T08:12:22.857Z,58.20
2018-04-11T08:14:50.732Z,57.70
2018-04-11T08:17:18.676Z,57.60
2018-04-11T08:19:45.695Z,57.80
2018-04-11T08:22:12.765Z,57.50
2018-04-11T08:24:46.687Z,57.30
2018-04-11T08:27:13.744Z,57.20
2018-04-11T08:29:41.532Z,59.10
2018-04-11T08:32:08.743Z,58.90
2018-04-11T08:34:35.721Z,57.00
2018-04-11T08:37:02.779Z,57.00
2018-04-11T08:39:29.800Z,56.60
2018-04-11T08:41:56.798Z,55.80
2018-04-11T08:44:23.799Z,56.10
2018-04-11T08:46:51.551Z,55.80
2018-04-11T08:49:18.545Z,55.80
2018-04-11T08:51:45.585Z,54.80
2018-04-11T08:54:12.666Z,56.00
2018-04-11T08:56:39.683Z,55.50
2018-04-11T08:59:06.675Z,53.50
2018-04-11T09:01:34.437Z,53.00
2018-04-11T09:04:01.453Z,52.90
2018-04-11T09:06:28.466Z,52.80
2018-04-11T09:08:56.240Z,53.80
2018-04-11T09:11:23.241Z,53.70
2018-04-11T09:13:50.252Z,53.90
2018-04-11T09:16:17.260Z,52.90
2018-04-11T09:18:44.260Z,52.60
2018-04-11T09:21:11.268Z,53.60
2018-04-11T09:23:38.276Z,52.60
2018-04-11T09:26:05.292Z,52.50
2018-04-11T09:28:33.155Z,51.50
2018-04-11T09:31:00.144Z,52.40
2018-04-11T09:33:27.171Z,50.40
2018-04-11T09:35:54.164Z,49.20
2018-04-11T09:38:21.197Z,52.00
2018-04-11T09:40:49.019Z,50.80
2018-04-11T09:43:16.063Z,50.70
2018-04-11T09:45:43.109Z,49.50
2018-04-11T09:48:10.099Z,49.60
2018-04-11T09:50:37.861Z,46.50
2018-04-11T09:53:05.127Z,46.50
2018-04-11T09:55:32.896Z,47.00
2018-04-11T09:58:00.647Z,49.70
2018-04-11T10:00:28.491Z,46.30
2018-04-11T10:03:01.639Z,46.40
2018-04-11T10:05:28.660Z,44.40
2018-04-11T10:07:56.404Z,44.10
2018-04-11T10:10:24.164Z,43.60
2018-04-11T10:12:51.184Z,43.10
2018-04-11T10:15:18.220Z,44.30
2018-04-11T10:17:45.251Z,42.90
2018-04-11T10:20:12.280Z,43.50
2018-04-11T10:22:39.341Z,42.10
2018-04-11T10:25:06.429Z,42.00
2018-04-11T10:27:33.452Z,42.50
2018-04-11T10:30:00.452Z,43.70
2018-04-11T10:32:27.453Z,40.50
2018-04-11T10:34:54.501Z,40.10
2018-04-11T10:37:21.500Z,39.70
2018-04-11T10:39:49.373Z,43.60
2018-04-11T10:42:16.415Z,43.60
2018-04-11T10:44:43.448Z,39.60
2018-04-11T10:47:10.484Z,39.00
2018-04-11T10:49:37.505Z,37.90
2018-04-11T10:52:04.605Z,38.80
2018-04-11T10:54:32.368Z,39.20
2018-04-11T10:57:00.132Z,40.00
2018-04-11T10:59:27.903Z,39.60
2018-04-11T11:01:55.692Z,39.90
2018-04-11T11:04:22.725Z,39.90
2018-04-11T11:06:49.776Z,39.70
2018-04-11T11:09:16.795Z,37.60
2018-04-11T11:11:44.559Z,36.80
2018-04-11T11:14:11.543Z,36.60
2018-04-11T11:16:38.792Z,36.10
2018-04-11T11:19:05.841Z,35.90
2018-04-11T11:21:32.836Z,35.80
2018-04-11T11:23:59.840Z,34.80
2018-04-11T11:26:26.877Z,35.90
2018-04-11T11:28:53.915Z,35.10
2018-04-11T11:31:21.661Z,35.80
2018-04-11T11:33:48.661Z,35.70
2018-04-11T11:36:15.692Z,39.00
2018-04-11T11:38:42.756Z,36.00
2018-04-11T11:41:09.747Z,38.90
2018-04-11T11:43:37.485Z,36.50
2018-04-11T11:46:04.506Z,36.30
2018-04-11T11:48:31.536Z,37.70
2018-04-11T11:50:59.276Z,36.20
2018-04-11T11:53:27.084Z,36.90
2018-04-11T11:55:54.213Z,36.80
2018-04-11T11:58:21.249Z,34.90
2018-04-11T12:00:48.239Z,36.10
2018-04-11T12:03:15.284Z,33.90
2018-04-11T12:05:42.313Z,33.20
2018-04-11T12:08:10.132Z,31.20
2018-04-11T12:10:37.916Z,31.10
2018-04-11T12:13:04.940Z,30.30
2018-04-11T12:15:31.943Z,30.10
2018-04-11T12:17:58.997Z,32.10
2018-04-11T12:20:25.979Z,30.00
2018-04-11T12:22:53.013Z,29.10
2018-04-11T12:25:20.504Z,28.20
2018-04-11T12:27:47.640Z,28.70
2018-04-11T12:30:15.545Z,28.20
2018-04-11T12:32:42.592Z,28.20
2018-04-11T12:35:09.585Z,28.20
2018-04-11T12:37:36.597Z,29.30
2018-04-11T12:40:03.619Z,27.60
2018-04-11T12:42:30.647Z,27.60
2018-04-11T12:44:57.631Z,27.00
2018-04-11T12:47:24.640Z,28.20
2018-04-11T12:49:52.412Z,29.10
2018-04-11T12:52:19.418Z,29.10
2018-04-11T12:54:46.436Z,28.20
2018-04-11T12:57:13.512Z,27.50
2018-04-11T12:59:40.527Z,27.10
2018-04-11T13:02:07.583Z,27.40
2018-04-11T13:04:34.576Z,26.80
2018-04-11T13:07:01.819Z,27.40
2018-04-11T13:09:28.820Z,27.00
2018-04-11T13:11:55.864Z,28.20
2018-04-11T13:14:22.913Z,27.40
2018-04-11T13:16:49.935Z,27.80
2018-04-11T13:19:17.749Z,27.10
2018-04-11T13:21:45.520Z,26.40
2018-04-11T13:24:12.725Z,26.50
2018-04-11T13:26:42.550Z,25.60
2018-04-11T13:29:09.557Z,26.70
2018-04-11T13:31:37.518Z,25.60
2018-04-11T13:34:04.552Z,25.60
2018-04-11T13:36:31.568Z,25.10
2018-04-11T13:38:58.613Z,24.90
2018-04-11T13:41:25.612Z,25.20
2018-04-11T13:43:52.648Z,25.10
2018-04-11T13:46:19.696Z,25.90
2018-04-11T13:48:46.927Z,24.90
2018-04-11T13:51:13.950Z,25.50
2018-04-11T13:53:41.001Z,25.00
2018-04-11T13:56:08.020Z,25.30
2018-04-11T13:58:35.032Z,25.20
2018-04-11T14:01:02.250Z,25.30
2018-04-11T14:03:29.264Z,25.50
2018-04-11T14:05:56.995Z,27.30
2018-04-11T14:08:24.022Z,27.30
2018-04-11T14:10:51.088Z,27.50
2018-04-11T14:13:18.138Z,27.90
2018-04-11T14:15:45.911Z,28.90
2018-04-11T14:18:13.084Z,28.90
2018-04-11T14:20:40.948Z,29.60
2018-04-11T14:23:08.545Z,30.30
2018-04-11T14:25:35.588Z,30.40
2018-04-11T14:28:02.667Z,29.70
2018-04-11T14:30:29.674Z,30.00
2018-04-11T14:32:56.711Z,29.50
2018-04-11T14:35:23.747Z,29.70
2018-04-11T14:37:51.754Z,29.50
2018-04-11T14:40:18.792Z,29.60
2018-04-11T14:42:45.839Z,30.20
2018-04-11T14:45:12.902Z,30.20
2018-04-11T14:47:39.969Z,30.40
2018-04-11T14:50:06.981Z,30.00
2018-04-11T14:52:33.982Z,30.60
2018-04-11T14:55:00.984Z,30.90
2018-04-11T14:57:29.340Z,30.70
2018-04-11T14:59:56.468Z,30.70
2018-04-11T15:02:24.228Z,29.70
2018-04-11T15:04:51.215Z,29.70
2018-04-11T15:07:18.240Z,29.70
2018-04-11T15:09:45.413Z,29.70
2018-04-11T15:12:12.585Z,30.10
2018-04-11T15:14:39.723Z,30.20
2018-04-11T15:17:06.996Z,30.20
2018-04-11T15:19:34.818Z,31.10
2018-04-11T15:22:01.841Z,31.10
2018-04-11T15:24:28.949Z,30.70
2018-04-11T15:26:56.106Z,30.60
2018-04-11T15:29:23.893Z,30.80
2018-04-11T15:31:50.869Z,30.80
2018-04-11T15:34:18.013Z,31.40
2018-04-11T15:36:45.088Z,30.30
2018-04-11T15:39:12.109Z,30.60
2018-04-11T15:41:39.120Z,31.10
2018-04-11T15:44:07.241Z,30.70
2018-04-11T15:46:38.254Z,30.80
2018-04-11T15:49:06.157Z,31.00
2018-04-11T15:51:33.217Z,31.00
2018-04-11T15:54:00.244Z,31.80
2018-04-11T15:56:27.500Z,30.80
2018-04-11T15:58:54.550Z,31.20
2018-04-11T16:01:21.677Z,31.50
2018-04-11T16:03:48.788Z,33.50
2018-04-11T16:06:15.929Z,35.00
2018-04-11T16:08:43.325Z,34.90
2018-04-11T16:11:10.473Z,35.10
2018-04-11T16:13:37.545Z,35.30
2018-04-11T16:16:04.612Z,34.80
2018-04-11T16:18:32.025Z,35.30
2018-04-11T16:20:59.355Z,35.50
2018-04-11T16:23:27.111Z,35.80
2018-04-11T16:25:54.260Z,35.70
2018-04-11T16:28:21.430Z,36.60
2018-04-11T16:30:49.304Z,37.90
2018-04-11T16:33:16.452Z,37.90
2018-04-11T16:35:44.377Z,38.50
2018-04-11T16:38:11.477Z,38.50
2018-04-11T16:40:38.659Z,38.60
2018-04-11T16:43:05.676Z,39.80
2018-04-11T16:45:32.710Z,39.60
2018-04-11T16:47:59.929Z,40.90
2018-04-11T16:50:26.945Z,39.70
2018-04-11T16:52:54.153Z,40.10
2018-04-11T16:55:21.213Z,40.00
2018-04-11T16:57:48.276Z,40.70
2018-04-11T17:00:15.999Z,41.30
2018-04-11T17:02:43.325Z,40.50
2018-04-11T17:05:10.407Z,41.30
2018-04-11T17:07:38.197Z,40.90
2018-04-11T17:10:05.993Z,40.70
2018-04-11T17:12:33.174Z,40.60
2018-04-11T17:15:00.221Z,40.80
2018-04-11T17:17:27.469Z,40.80
2018-04-11T17:19:54.554Z,40.90
2018-04-11T17:22:40.257Z,41.70
2018-04-11T17:25:25.692Z,41.30
2018-04-11T17:28:11.229Z,42.00
2018-04-11T17:33:36.013Z,42.30
2018-04-11T17:36:04.003Z,43.30
2018-04-11T17:38:31.165Z,42.60
2018-04-11T17:40:58.215Z,42.10
2018-04-11T17:43:25.285Z,42.20
2018-04-11T17:45:52.322Z,42.80
2018-04-11T17:48:19.361Z,43.90
2018-04-11T17:50:46.625Z,45.20
2018-04-11T17:53:13.724Z,47.00
2018-04-11T17:55:40.805Z,47.00
2018-04-11T17:58:08.297Z,47.20
2018-04-11T18:00:35.466Z,47.80
2018-04-11T18:03:02.638Z,48.10
2018-04-11T18:05:29.705Z,48.10
2018-04-11T18:07:56.999Z,48.30
2018-04-11T18:10:24.229Z,48.30
2018-04-11T18:12:51.373Z,48.70
2018-04-11T18:15:19.226Z,48.90
2018-04-11T18:17:47.021Z,49.50
2018-04-11T18:20:14.261Z,49.40
2018-04-11T18:22:41.305Z,49.00
2018-04-11T18:25:09.378Z,49.20
2018-04-11T18:27:36.419Z,49.30
2018-04-11T18:30:04.197Z,49.50
2018-04-11T18:32:31.622Z,49.20
2018-04-11T18:34:58.704Z,49.90
2018-04-11T18:37:26.990Z,49.60
2018-04-11T18:39:54.834Z,49.60
2018-04-11T18:42:21.888Z,49.60
2018-04-11T18:44:49.081Z,49.40
2018-04-11T18:47:16.292Z,49.70
2018-04-11T18:49:44.117Z,49.70
2018-04-11T18:52:11.173Z,49.60
2018-04-11T18:54:38.183Z,49.60
2018-04-11T18:57:05.270Z,49.70
2018-04-11T18:59:32.406Z,49.90
2018-04-11T19:01:59.653Z,49.90
2018-04-11T19:04:26.852Z,50.10
2018-04-11T19:06:54.116Z,50.20
2018-04-11T19:09:21.324Z,49.90
2018-04-11T19:11:48.434Z,50.20
2018-04-11T19:14:16.427Z,50.50
2018-04-11T19:16:43.646Z,50.50
2018-04-11T19:19:10.913Z,50.90
2018-04-11T19:21:39.040Z,51.20
2018-04-11T19:24:06.137Z,51.10
2018-04-11T19:26:33.456Z,51.40
2018-04-11T19:29:00.496Z,51.50
2018-04-11T19:31:27.551Z,52.00
2018-04-11T19:33:54.606Z,52.20
2018-04-11T19:36:21.613Z,52.00
2018-04-11T19:38:48.781Z,51.70
2018-04-11T19:41:15.992Z,52.10
2018-04-11T19:43:43.151Z,52.20
2018-04-11T19:46:10.366Z,52.40
2018-04-11T19:48:38.347Z,53.50
2018-04-11T19:51:05.559Z,52.80
2018-04-11T19:53:33.456Z,52.80
2018-04-11T19:56:01.435Z,52.60
2018-04-11T19:58:31.527Z,52.50
2018-04-11T20:00:59.434Z,52.90
2018-04-11T20:03:27.416Z,53.10
2018-04-11T20:05:54.644Z,53.00
2018-04-11T20:08:21.873Z,52.60
2018-04-11T20:10:49.716Z,53.00
2018-04-11T20:13:16.881Z,53.30
2018-04-11T20:15:44.178Z,52.90
2018-04-11T20:18:11.465Z,53.20
2018-04-11T20:20:38.753Z,53.50
2018-04-11T20:23:06.096Z,54.00
2018-04-11T20:25:33.259Z,54.30
2018-04-11T20:28:01.113Z,54.30
2018-04-11T20:30:28.429Z,54.60
2018-04-11T20:32:55.863Z,54.90
2018-04-11T20:35:22.896Z,55.10
2018-04-11T20:37:50.221Z,55.50
2018-04-11T20:40:17.566Z,55.60
2018-04-11T20:42:44.738Z,55.80
2018-04-11T20:45:11.854Z,56.00
2018-04-11T20:47:38.870Z,56.20
2018-04-11T20:50:05.849Z,56.70
2018-04-11T20:52:32.878Z,57.00
2018-04-11T20:54:59.951Z,57.20
2018-04-11T20:57:27.003Z,57.20
2018-04-11T20:59:54.036Z,57.60
2018-04-11T21:02:21.370Z,57.60
2018-04-11T21:04:48.494Z,58.00
2018-04-11T21:07:15.573Z,58.20
2018-04-11T21:09:42.645Z,58.30
2018-04-11T21:12:09.677Z,58.70
2018-04-11T21:14:36.689Z,58.90
2018-04-11T21:17:03.748Z,59.90
2018-04-11T21:19:31.604Z,59.50
2018-04-11T21:21:59.680Z,59.50
2018-04-11T21:24:27.485Z,59.50
2018-04-11T21:26:54.505Z,59.50
2018-04-11T21:29:22.291Z,59.10
2018-04-11T21:31:49.380Z,59.20
2018-04-11T21:34:17.200Z,58.70
2018-04-11T21:36:44.227Z,58.70
2018-04-11T21:39:12.012Z,58.60
2018-04-11T21:41:39.332Z,58.60
2018-04-11T21:44:06.445Z,58.40
2018-04-11T21:46:33.501Z,58.60
2018-04-11T21:49:00.539Z,58.60
2018-04-11T21:51:27.556Z,58.50
2018-04-11T21:53:54.610Z,59.00
2018-04-11T21:56:21.657Z,58.90
2018-04-11T21:58:48.679Z,58.60
2018-04-11T22:01:16.462Z,58.90
2018-04-11T22:03:43.488Z,58.90
2018-04-11T22:06:10.524Z,59.00
2018-04-11T22:08:37.548Z,58.60
2018-04-11T22:11:04.584Z,58.70
2018-04-11T22:13:31.560Z,58.70
2018-04-11T22:15:58.612Z,59.00
2018-04-11T22:18:26.452Z,59.30
2018-04-11T22:20:53.724Z,59.30
2018-04-11T22:23:20.763Z,59.30
2018-04-11T22:25:47.831Z,59.30
2018-04-11T22:28:14.888Z,59.30
2018-04-11T22:30:42.648Z,59.50
2018-04-11T22:33:09.676Z,59.40
2018-04-11T22:35:36.862Z,59.70
2018-04-11T22:38:03.964Z,59.70
2018-04-11T22:40:31.028Z,59.80
2018-04-11T22:42:58.028Z,60.00
2018-04-11T22:45:25.040Z,60.40
2018-04-11T22:47:52.836Z,60.60
2018-04-11T22:50:19.924Z,60.60
2018-04-11T22:52:46.927Z,60.60
2018-04-11T22:55:13.994Z,61.10
2018-04-11T22:57:41.365Z,61.00
2018-04-11T23:00:08.692Z,61.10
2018-04-11T23:02:35.778Z,61.30
2018-04-11T23:05:02.809Z,61.50
2018-04-11T23:07:29.844Z,61.70
2018-04-11T23:09:56.880Z,62.00
2018-04-11T23:12:23.916Z,62.30
2018-04-11T23:14:50.948Z,62.30
2018-04-11T23:17:18.012Z,62.30
2018-04-11T23:19:48.804Z,62.40
2018-04-11T23:22:16.062Z,63.60
2018-04-11T23:24:43.235Z,62.90
2018-04-11T23:27:10.284Z,63.70
2018-04-11T23:29:38.032Z,62.80
2018-04-11T23:32:05.845Z,63.20
2018-04-11T23:34:33.617Z,62.60
2018-04-11T23:37:00.624Z,62.60
2018-04-11T23:39:27.607Z,62.50
2018-04-11T23:41:54.635Z,62.60
2018-04-11T23:44:21.721Z,62.90
2018-04-11T23:46:48.778Z,62.90
2018-04-11T23:49:15.787Z,62.70
2018-04-11T23:51:42.795Z,62.80
2018-04-11T23:54:10.551Z,62.30
2018-04-11T23:56:38.341Z,62.20
2018-04-11T23:59:05.345Z,62.10
